Terminal Aerodrome Forecast
Issued by NWS

Home | Current Version | Previous Version | Text Only | Print | Product List | Glossary On
Versions: 1 2 3 4 5 6 7 8 9 10 11 12 13 14 15
196
FTPA31 PHFO 241739
TAFHKO
TAF
PHKO 241739Z 2418/2518 VRB05KT P6SM FEW010 SCT060 SCT110
     FM242000 25010KT P6SM SCT060
     FM242300 25010KT P6SM VCTS SCT025CB BKN060
     FM250600 12005KT P6SM VCSH SCT025 BKN060=

USA.gov is the U.S. government's official web portal to all federal, state and local government web resources and services.